Time;durP1;ratioP1;P1;durP2;ratioP2;P2;SDS_P1;SDS_P2;PMS_P1;PMS_P2;Temp;Humidity;BMP_temperature;BMP_pressure;BME280_temperature;BME280_humidity;BME280_pressure;Samples;Min_cycle;Max_cycle;Signal;HPM_P1;HPM_P2
2022/09/01 00:01:20;;;;;;;3.05;1.80;;;14.60;99.90;;;;;;5047406;28;20489;-71
2022/09/01 00:03:51;;;;;;;3.13;1.58;;;14.60;99.90;;;;;;5029609;28;20040;-71
2022/09/01 00:06:23;;;;;;;4.03;2.03;;;14.60;99.90;;;;;;5051406;28;20067;-70
2022/09/01 00:08:53;;;;;;;4.53;1.90;;;14.70;99.90;;;;;;5052046;28;20481;-71
2022/09/01 00:11:21;;;;;;;3.92;1.90;;;14.60;99.90;;;;;;5050839;28;20083;-71
2022/09/01 00:13:48;;;;;;;5.03;1.60;;;14.50;99.90;;;;;;5041946;28;20037;-71
2022/09/01 00:16:15;;;;;;;4.07;2.03;;;14.50;99.90;;;;;;5025712;28;20041;-71
2022/09/01 00:18:41;;;;;;;4.15;1.83;;;14.50;99.90;;;;;;5023976;28;20118;-70
2022/09/01 00:21:09;;;;;;;4.10;1.83;;;14.40;99.90;;;;;;5025252;28;20052;-71
2022/09/01 00:23:38;;;;;;;2.90;1.70;;;14.40;99.90;;;;;;5040208;28;20056;-71
2022/09/01 00:26:04;;;;;;;3.60;1.75;;;14.40;99.90;;;;;;5024351;28;20133;-70
2022/09/01 00:28:33;;;;;;;4.00;1.95;;;14.40;99.90;;;;;;5024854;28;20060;-70
2022/09/01 00:30:59;;;;;;;3.03;1.52;;;14.30;99.90;;;;;;5051018;28;20039;-71
2022/09/01 00:33:25;;;;;;;4.25;1.95;;;14.30;99.90;;;;;;5032838;28;20049;-71
2022/09/01 00:35:51;;;;;;;2.83;1.88;;;14.30;99.90;;;;;;5033560;28;20029;-70
2022/09/01 00:38:16;;;;;;;4.60;1.77;;;14.20;99.90;;;;;;5051393;28;20041;-70
2022/09/01 00:40:42;;;;;;;3.75;1.85;;;14.20;99.90;;;;;;5051027;28;20366;-71
2022/09/01 00:43:34;;;;;;;4.97;1.75;;;14.20;99.90;;;;;;5049223;28;20044;-70
2022/09/01 00:46:00;;;;;;;3.83;1.90;;;14.20;99.90;;;;;;5049661;28;20076;-70
2022/09/01 00:48:26;;;;;;;5.20;2.03;;;14.20;99.90;;;;;;5051563;28;20156;-70
2022/09/01 00:50:51;;;;;;;3.60;1.70;;;14.10;99.90;;;;;;5033171;28;20473;-71
2022/09/01 00:53:17;;;;;;;4.93;2.35;;;14.10;99.90;;;;;;5032595;28;20048;-70
2022/09/01 00:55:43;;;;;;;3.40;1.85;;;14.00;99.90;;;;;;5051729;28;20116;-71
2022/09/01 00:58:09;;;;;;;4.95;1.80;;;14.00;99.90;;;;;;5048408;28;20112;-70
2022/09/01 01:00:39;;;;;;;3.25;1.80;;;14.00;99.90;;;;;;5029238;28;20122;-70
2022/09/01 01:03:14;;;;;;;4.15;1.90;;;14.00;99.90;;;;;;5047415;28;20134;-70
2022/09/01 01:05:47;;;;;;;3.38;1.90;;;13.90;99.90;;;;;;5022491;28;20040;-70
2022/09/01 01:08:18;;;;;;;3.15;1.85;;;13.90;99.90;;;;;;5023017;28;20048;-70
2022/09/01 01:10:43;;;;;;;3.47;1.75;;;13.90;99.90;;;;;;5023229;28;20405;-70
2022/09/01 01:13:15;;;;;;;3.45;1.90;;;13.90;99.90;;;;;;5039646;28;20041;-70
2022/09/01 01:15:42;;;;;;;3.03;1.80;;;13.80;99.90;;;;;;5055066;28;20041;-71
2022/09/01 01:18:13;;;;;;;4.13;1.90;;;13.80;99.90;;;;;;5054333;28;20090;-71
2022/09/01 01:23:50;;;;;;;5.47;1.65;;;13.80;99.90;;;;;;5036539;28;20048;-70
2022/09/01 01:26:15;;;;;;;3.95;1.77;;;13.70;99.90;;;;;;5035635;28;20401;-70
2022/09/01 01:28:43;;;;;;;2.63;1.52;;;13.70;99.90;;;;;;5051849;28;20041;-70
2022/09/01 01:31:12;;;;;;;2.83;1.65;;;13.70;99.90;;;;;;5026160;28;20090;-70
2022/09/01 01:33:46;;;;;;;3.95;1.70;;;13.60;99.90;;;;;;5054584;28;20123;-71
2022/09/01 01:36:31;;;;;;;2.90;1.90;;;13.60;99.90;;;;;;5036030;28;20087;-70
2022/09/01 01:39:01;;;;;;;2.95;1.80;;;13.60;99.90;;;;;;5032784;28;20048;-71
2022/09/01 01:41:28;;;;;;;2.75;1.75;;;13.60;99.90;;;;;;5050661;28;20056;-70
2022/09/01 01:43:57;;;;;;;4.00;1.70;;;13.50;99.90;;;;;;5028189;28;20045;-71
2022/09/01 01:46:28;;;;;;;3.45;1.48;;;13.50;99.90;;;;;;5050706;28;20049;-71
2022/09/01 01:48:54;;;;;;;2.80;1.75;;;13.40;99.90;;;;;;5035788;28;20554;-71
2022/09/01 01:51:23;;;;;;;3.78;2.13;;;13.40;99.90;;;;;;5035848;28;20044;-71
2022/09/01 01:53:51;;;;;;;3.35;1.73;;;13.40;99.90;;;;;;5054285;28;20405;-70
2022/09/01 01:56:18;;;;;;;3.33;1.67;;;13.40;99.90;;;;;;5036007;28;20048;-70
2022/09/01 01:58:44;;;;;;;3.30;1.88;;;13.30;99.90;;;;;;5049191;28;20049;-71
2022/09/01 02:01:15;;;;;;;2.88;1.65;;;13.30;99.90;;;;;;5026186;28;20128;-70
2022/09/01 02:03:44;;;;;;;3.33;1.95;;;13.30;99.90;;;;;;5026111;28;20052;-71
2022/09/01 02:06:10;;;;;;;4.25;1.80;;;13.20;99.90;;;;;;5026256;28;20206;-71
2022/09/01 02:08:38;;;;;;;2.60;1.63;;;13.30;99.90;;;;;;5044251;28;20045;-70
2022/09/01 02:11:07;;;;;;;3.20;1.75;;;13.20;99.90;;;;;;5025425;28;20041;-70
2022/09/01 02:13:34;;;;;;;3.58;1.67;;;13.30;99.90;;;;;;5026874;28;20069;-70
2022/09/01 02:16:10;;;;;;;4.72;1.98;;;13.20;99.90;;;;;;5053706;28;20118;-70
2022/09/01 02:18:46;;;;;;;3.65;1.85;;;13.20;99.90;;;;;;5052932;28;20056;-71
2022/09/01 02:21:18;;;;;;;4.97;2.00;;;13.20;99.90;;;;;;5053552;28;20507;-70
2022/09/01 02:23:49;;;;;;;3.03;1.90;;;13.10;99.90;;;;;;5035553;28;20044;-71
2022/09/01 02:26:17;;;;;;;3.20;1.90;;;13.10;99.90;;;;;;5052019;28;20033;-70
2022/09/01 02:28:45;;;;;;;3.13;1.70;;;13.10;99.90;;;;;;5050257;28;20044;-70
2022/09/01 02:31:12;;;;;;;3.17;1.77;;;13.10;99.90;;;;;;5027349;28;20069;-70
2022/09/01 02:33:39;;;;;;;;;;;13.00;99.90;;;;;;5053402;28;20137;-70
2022/09/01 02:36:09;;;;;;;2.67;1.60;;;13.20;99.90;;;;;;5035291;28;19921;-71
2022/09/01 02:38:34;;;;;;;4.15;1.80;;;13.00;99.90;;;;;;5053306;28;20048;-71
2022/09/01 02:41:01;;;;;;;;;;;13.00;99.90;;;;;;5053634;28;20043;-71
2022/09/01 02:43:28;;;;;;;3.25;1.67;;;13.00;99.90;;;;;;5034128;28;19924;-70
2022/09/01 02:45:58;;;;;;;3.60;1.90;;;13.00;99.90;;;;;;5025495;28;20045;-71
2022/09/01 02:48:31;;;;;;;3.65;2.17;;;13.00;99.90;;;;;;5042662;28;20088;-71
2022/09/01 02:51:00;;;;;;;3.63;1.85;;;13.00;99.90;;;;;;5025919;28;20127;-71
2022/09/01 02:53:27;;;;;;;3.05;1.88;;;13.20;99.90;;;;;;5024095;28;20054;-71
2022/09/01 02:55:56;;;;;;;3.47;1.80;;;13.00;99.90;;;;;;5043993;28;20111;-71
2022/09/01 02:58:25;;;;;;;2.85;1.80;;;13.00;99.90;;;;;;5044719;28;20071;-71
2022/09/01 03:00:53;;;;;;;3.20;2.05;;;13.00;99.90;;;;;;5030869;28;20051;-71
2022/09/01 03:03:20;;;;;;;2.60;1.60;;;13.00;99.90;;;;;;5026397;28;20056;-70
2022/09/01 03:05:47;;;;;;;3.25;1.80;;;13.10;99.90;;;;;;5023322;28;20080;-71
2022/09/01 03:08:15;;;;;;;3.20;1.90;;;12.90;99.90;;;;;;5044361;28;20052;-71
2022/09/01 03:10:42;;;;;;;5.70;1.90;;;13.10;99.90;;;;;;5048748;28;20522;-70
2022/09/01 03:13:16;;;;;;;4.22;2.10;;;12.90;99.90;;;;;;5052296;28;20048;-71
2022/09/01 03:15:43;;;;;;;3.60;1.90;;;12.90;99.90;;;;;;5023756;28;20037;-70
2022/09/01 03:18:10;;;;;;;2.80;1.73;;;12.90;99.90;;;;;;5044374;28;20488;-71
2022/09/01 03:20:38;;;;;;;2.85;1.80;;;12.90;99.90;;;;;;5022737;28;20053;-71
2022/09/01 03:23:07;;;;;;;2.97;1.77;;;12.90;99.90;;;;;;5043674;28;20063;-71
2022/09/01 03:25:35;;;;;;;2.38;1.48;;;12.90;99.90;;;;;;5041517;28;20497;-71
2022/09/01 03:28:04;;;;;;;2.95;1.85;;;12.90;99.90;;;;;;5023828;28;20543;-71
2022/09/01 03:30:32;;;;;;;3.88;1.80;;;12.90;99.90;;;;;;5051302;28;20477;-70
2022/09/01 03:33:00;;;;;;;3.75;2.00;;;12.90;99.90;;;;;;5046589;28;20037;-71
2022/09/01 03:35:27;;;;;;;3.38;2.10;;;12.80;99.90;;;;;;5023736;28;20049;-70
2022/09/01 03:37:56;;;;;;;4.65;1.77;;;12.80;99.90;;;;;;5042049;28;20052;-70
2022/09/01 03:40:22;;;;;;;2.60;1.60;;;12.80;99.90;;;;;;5025193;28;20058;-70
2022/09/01 03:42:48;;;;;;;;;;;12.80;99.90;;;;;;5023871;28;20033;-71
2022/09/01 03:45:15;;;;;;;3.20;1.50;;;12.80;99.90;;;;;;5030002;28;20384;-71
2022/09/01 03:47:42;;;;;;;3.72;2.00;;;12.70;99.90;;;;;;5040468;28;20037;-70
2022/09/01 03:50:19;;;;;;;4.43;2.00;;;12.80;99.90;;;;;;5025935;28;20048;-70
2022/09/01 03:52:51;;;;;;;3.80;1.83;;;12.60;99.90;;;;;;5043086;28;20033;-70
2022/09/01 03:55:22;;;;;;;4.03;1.85;;;12.90;99.90;;;;;;5041836;28;20092;-70
2022/09/01 03:57:53;;;;;;;4.15;2.10;;;12.60;99.90;;;;;;5024518;28;20045;-70
2022/09/01 04:00:21;;;;;;;4.03;2.00;;;12.60;99.90;;;;;;5024066;28;20128;-71
2022/09/01 04:02:55;;;;;;;3.35;1.70;;;12.60;99.90;;;;;;5024031;28;20043;-71
2022/09/01 04:05:27;;;;;;;4.10;2.05;;;12.40;99.90;;;;;;5024540;28;20061;-71
2022/09/01 04:07:59;;;;;;;4.45;2.00;;;12.60;99.90;;;;;;5041431;28;20159;-71
2022/09/01 04:10:25;;;;;;;3.60;1.85;;;12.50;99.90;;;;;;5024944;28;20049;-71
2022/09/01 04:12:51;;;;;;;;;;;12.50;99.90;;;;;;5043763;28;20469;-71
2022/09/01 04:15:19;;;;;;;3.97;2.00;;;12.50;99.90;;;;;;5048763;28;19921;-71
2022/09/01 04:20:38;;;;;;;3.30;1.77;;;12.40;99.90;;;;;;5048047;28;19920;-70
2022/09/01 04:23:09;;;;;;;2.78;1.73;;;12.50;99.90;;;;;;5029835;28;20051;-70
2022/09/01 04:25:37;;;;;;;3.00;1.90;;;12.40;99.90;;;;;;5051085;28;20454;-71
2022/09/01 04:28:11;;;;;;;2.90;1.90;;;12.40;99.90;;;;;;5032894;28;20048;-71
2022/09/01 04:30:39;;;;;;;3.75;2.03;;;12.40;99.90;;;;;;5029168;28;20075;-71
2022/09/01 04:33:06;;;;;;;2.95;1.70;;;12.40;99.90;;;;;;5041799;28;20037;-71
2022/09/01 04:35:37;;;;;;;3.83;1.80;;;12.30;99.90;;;;;;5022326;28;20046;-71
2022/09/01 04:38:03;;;;;;;2.97;1.70;;;12.30;99.90;;;;;;5024236;28;20090;-71
2022/09/01 04:40:28;;;;;;;;;;;12.30;99.90;;;;;;5022457;28;20045;-71
2022/09/01 04:42:54;;;;;;;3.30;1.90;;;12.30;99.90;;;;;;5042798;28;19967;-71
2022/09/01 04:45:23;;;;;;;;;;;12.30;99.90;;;;;;5042792;28;20485;-71
2022/09/01 04:47:49;;;;;;;2.75;1.88;;;12.30;99.90;;;;;;5050690;28;20388;-71
2022/09/01 04:50:16;;;;;;;3.35;2.10;;;12.20;99.90;;;;;;5033438;28;20545;-71
2022/09/01 04:52:46;;;;;;;3.50;1.98;;;12.20;99.90;;;;;;5050580;28;20037;-71
2022/09/01 04:55:16;;;;;;;4.25;1.90;;;12.20;99.90;;;;;;5033378;28;20044;-71
2022/09/01 04:57:46;;;;;;;3.35;2.10;;;12.20;99.90;;;;;;5051081;28;20124;-71
2022/09/01 05:00:22;;;;;;;2.95;1.92;;;12.10;99.90;;;;;;5025062;28;20041;-71
2022/09/01 05:02:51;;;;;;;3.42;1.88;;;12.10;99.90;;;;;;5033675;28;20044;-71
2022/09/01 05:05:18;;;;;;;2.78;1.92;;;12.10;99.90;;;;;;5033015;28;20409;-71
2022/09/01 05:07:43;;;;;;;3.22;2.20;;;12.10;99.90;;;;;;5032377;28;20068;-72
2022/09/01 05:10:09;;;;;;;;;;;12.10;99.90;;;;;;5040079;28;20901;-71
2022/09/01 05:12:35;;;;;;;4.10;2.15;;;12.10;99.90;;;;;;5024305;28;20020;-71
2022/09/01 05:15:07;;;;;;;3.80;2.30;;;12.20;99.90;;;;;;5022958;28;20408;-71
2022/09/01 05:17:33;;;;;;;4.47;2.30;;;12.10;99.90;;;;;;5048899;28;20042;-73
2022/09/01 05:19:59;;;;;;;;;;;12.10;99.90;;;;;;5033220;28;20036;-70
2022/09/01 05:22:25;;;;;;;3.33;2.13;;;12.10;99.90;;;;;;5032317;28;19983;-69
2022/09/01 05:24:54;;;;;;;4.72;2.05;;;12.10;99.90;;;;;;5045722;28;20075;-69
2022/09/01 05:27:21;;;;;;;3.55;2.28;;;12.40;99.90;;;;;;5024706;28;20123;-70
2022/09/01 05:29:48;;;;;;;4.40;2.28;;;12.20;99.90;;;;;;5029493;28;20052;-77
2022/09/01 05:32:14;;;;;;;5.78;2.70;;;12.20;99.90;;;;;;5033021;28;20068;-74
2022/09/01 05:34:41;;;;;;;;;;;12.30;99.90;;;;;;5041828;28;20091;-73
2022/09/01 05:37:07;;;;;;;;;;;12.30;99.90;;;;;;5022763;28;19944;-72
2022/09/01 05:39:36;;;;;;;;;;;12.30;99.90;;;;;;5025192;28;19963;-74
2022/09/01 05:42:03;;;;;;;;;;;12.40;99.90;;;;;;5030643;28;19968;-75
2022/09/01 05:44:29;;;;;;;;;;;12.40;99.90;;;;;;5050644;28;19921;-75
2022/09/01 05:46:58;;;;;;;;;;;12.40;99.90;;;;;;5033081;28;19920;-72
2022/09/01 05:49:25;;;;;;;;;;;12.50;99.90;;;;;;5033160;28;19921;-72
2022/09/01 05:51:53;;;;;;;;;;;12.50;99.90;;;;;;5033399;28;19943;-73
2022/09/01 05:54:21;;;;;;;;;;;12.60;99.90;;;;;;5046658;28;19921;-73
2022/09/01 05:56:52;;;;;;;;;;;12.60;99.90;;;;;;5040633;28;19921;-79
2022/09/01 05:59:22;;;;;;;;;;;12.70;99.90;;;;;;5039902;28;19968;-77
2022/09/01 06:01:48;;;;;;;;;;;12.70;99.90;;;;;;5028507;28;19921;-80
2022/09/01 06:04:14;;;;;;;;;;;12.80;99.90;;;;;;5042656;28;20042;-75
2022/09/01 06:06:45;;;;;;;;;;;12.90;99.90;;;;;;5046856;28;20423;-74
2022/09/01 06:09:16;;;;;;;;;;;12.90;99.90;;;;;;5027858;28;19923;-72
2022/09/01 06:11:42;;;;;;;;;;;13.00;99.90;;;;;;5032984;28;19921;-75
2022/09/01 06:14:10;;;;;;;;;;;13.10;99.90;;;;;;5054121;28;19921;-71
2022/09/01 06:16:36;;;;;;;;;;;13.10;99.90;;;;;;5036441;28;19924;-77
2022/09/01 06:19:01;;;;;;;;;;;13.20;99.90;;;;;;5054557;28;19966;-77
2022/09/01 06:21:27;;;;;;;;;;;13.20;99.90;;;;;;5037157;28;20007;-73
2022/09/01 06:23:54;;;;;;;;;;;13.30;99.90;;;;;;5049909;28;19921;-78
2022/09/01 06:26:27;;;;;;;;;;;13.40;99.90;;;;;;5045177;28;19935;-71
2022/09/01 06:28:54;;;;;;;;;;;13.50;99.90;;;;;;5027121;28;19936;-69
2022/09/01 06:31:22;;;;;;;;;;;13.60;99.90;;;;;;5043971;28;20003;-68
2022/09/01 06:33:52;;;;;;;;;;;13.60;99.90;;;;;;5042834;28;19928;-67
2022/09/01 06:36:22;;;;;;;;;;;13.70;99.90;;;;;;5026036;28;19928;-68
2022/09/01 06:38:51;;;;;;;;;;;13.80;99.90;;;;;;5024204;28;19921;-70
2022/09/01 06:41:18;;;;;;;;;;;13.80;99.90;;;;;;5048863;28;20011;-70
2022/09/01 06:43:45;;;;;;;;;;;13.90;99.90;;;;;;5024728;28;20044;-70
2022/09/01 06:46:14;;;;;;;;;;;14.00;99.90;;;;;;5025068;28;20381;-70
2022/09/01 06:48:46;;;;;;;;;;;14.20;99.90;;;;;;5023482;28;19928;-70
2022/09/01 06:51:13;;;;;;;;;;;14.20;99.90;;;;;;5025755;28;19920;-70
2022/09/01 06:53:40;;;;;;;;;;;14.40;99.90;;;;;;5035676;28;19935;-73
2022/09/01 06:56:07;;;;;;;;;;;14.50;99.90;;;;;;5051776;28;19943;-71
2022/09/01 06:58:32;;;;;;;;;;;14.60;99.90;;;;;;5031347;28;19921;-71
2022/09/01 07:00:58;;;;;;;;;;;14.70;99.90;;;;;;5034566;28;19920;-71
2022/09/01 07:03:24;;;;;;;;;;;14.80;99.90;;;;;;5035563;28;19935;-71
2022/09/01 07:05:50;;;;;;;;;;;15.00;99.90;;;;;;5032236;28;19920;-72
2022/09/01 07:08:20;;;;;;;;;;;15.30;99.90;;;;;;5047202;28;19924;-72
2022/09/01 07:10:48;;;;;;;;;;;15.40;99.90;;;;;;5034355;28;20286;-72
2022/09/01 07:13:21;;;;;;;;;;;15.60;99.90;;;;;;5032699;28;19925;-72
2022/09/01 07:15:48;;;;;;;;;;;15.80;99.90;;;;;;5052088;28;19921;-72
2022/09/01 07:18:16;;;;;;;;;;;16.10;99.90;;;;;;5033968;28;20380;-72
2022/09/01 07:20:41;;;;;;;;;;;16.30;99.90;;;;;;5047364;28;19928;-72
2022/09/01 07:23:07;;;;;;;;;;;16.60;99.90;;;;;;5025746;28;20280;-72
2022/09/01 07:25:36;;;;;;;;;;;16.80;99.90;;;;;;5023537;28;19929;-72
2022/09/01 07:28:02;;;;;;;;;;;17.10;99.90;;;;;;5026824;28;19920;-72
2022/09/01 07:30:27;;;;;;;;;;;17.40;99.90;;;;;;5024175;28;20304;-72
2022/09/01 07:32:54;;;;;;;;;;;17.70;99.90;;;;;;5026005;28;20372;-72
2022/09/01 07:35:21;;;;;;;;;;;18.30;99.90;;;;;;5042726;28;19921;-72
2022/09/01 07:37:47;;;;;;;;;;;18.60;99.90;;;;;;5034091;28;20070;-73
2022/09/01 07:40:17;;;;;;;;;;;19.20;99.90;;;;;;5043638;28;20348;-72
2022/09/01 07:42:43;;;;;;;;;;;19.90;99.90;;;;;;5024602;28;19921;-72
2022/09/01 07:45:10;;;;;;;;;;;20.10;99.90;;;;;;5042754;28;19979;-72
2022/09/01 07:47:36;;;;;;;;;;;20.10;99.90;;;;;;5024483;28;20300;-72
2022/09/01 07:50:07;;;;;;;;;;;21.00;99.90;;;;;;5024752;28;20015;-72
2022/09/01 07:52:34;;;;;;;;;;;21.70;99.50;;;;;;5052394;28;20323;-72
2022/09/01 07:55:00;;;;;;;;;;;22.30;98.20;;;;;;5051253;28;20448;-72
2022/09/01 07:57:26;;;;;;;;;;;22.10;97.90;;;;;;5034765;28;20012;-72
2022/09/01 07:59:54;;;;;;;;;;;21.70;97.60;;;;;;5034370;28;19927;-72
2022/09/01 08:02:19;;;;;;;;;;;21.60;97.60;;;;;;5034030;28;19921;-72
2022/09/01 08:04:45;;;;;;;;;;;21.90;98.60;;;;;;5052217;28;20528;-73
2022/09/01 08:07:10;;;;;;;;;;;23.00;97.00;;;;;;5024466;28;19921;-73
2022/09/01 08:09:37;;;;;;;;;;;24.40;95.00;;;;;;5024413;28;20335;-73
2022/09/01 08:12:04;;;;;;;;;;;25.50;93.30;;;;;;5023923;28;20365;-73
2022/09/01 08:14:32;;;;;;;;;;;26.30;92.90;;;;;;5025525;28;20002;-72
2022/09/01 08:16:58;;;;;;;;;;;26.10;91.80;;;;;;5022843;28;20373;-72
2022/09/01 08:19:23;;;;;;;;;;;26.10;91.50;;;;;;5026584;28;19928;-72
2022/09/01 08:21:49;;;;;;;;;;;25.70;91.70;;;;;;5026080;28;19920;-74
2022/09/01 08:24:14;;;;;;;;;;;26.10;91.60;;;;;;5032970;28;19947;-71
2022/09/01 08:26:40;;;;;;;;;;;26.80;90.80;;;;;;5051877;28;20431;-73
2022/09/01 08:29:05;;;;;;;;;;;27.50;90.00;;;;;;5033781;28;19925;-73
2022/09/01 08:31:34;;;;;;;;;;;27.80;88.20;;;;;;5034272;28;20392;-73
2022/09/01 08:34:00;;;;;;;;;;;28.00;89.50;;;;;;5028624;28;19924;-73
2022/09/01 08:36:28;;;;;;;;;;;28.20;86.80;;;;;;5043347;28;20343;-73
2022/09/01 08:38:54;;;;;;;;;;;28.40;90.00;;;;;;5022295;28;19921;-73
2022/09/01 08:41:28;;;;;;;;;;;27.80;86.80;;;;;;5025562;28;19990;-73
2022/09/01 08:44:26;;;;;;;;;;;27.00;88.60;;;;;;5021690;28;20000;-74
2022/09/01 08:46:56;;;;;;;;;;;27.30;90.50;;;;;;4955952;28;19975;-72
2022/09/01 08:49:25;;;;;;;;;;;28.10;89.20;;;;;;5013014;28;19968;-71
2022/09/01 08:51:50;;;;;;;;;;;28.90;87.20;;;;;;5021902;28;20377;-72
2022/09/01 08:54:25;;;;;;;;;;;28.70;87.30;;;;;;5002651;28;19925;-72
2022/09/01 08:56:52;;;;;;;;;;;28.20;85.30;;;;;;5010551;28;19948;-72
2022/09/01 08:59:18;;;;;;;;;;;27.90;87.80;;;;;;5013442;28;19971;-71
2022/09/01 09:02:02;;;;;;;;;;;28.40;87.60;;;;;;5013900;28;19956;-72
2022/09/01 09:04:46;;;;;;;;;;;29.30;86.50;;;;;;5006404;28;19925;-72
2022/09/01 09:07:14;;;;;;;;;;;29.80;83.70;;;;;;5009502;28;19921;-72
2022/09/01 09:09:45;;;;;;;;;;;30.50;84.10;;;;;;5014420;28;19927;-74
2022/09/01 09:12:19;;;;;;;;;;;30.70;84.40;;;;;;5013562;28;20304;-74
2022/09/01 09:15:08;;;;;;;;;;;31.40;84.90;;;;;;5007537;28;19922;-73
2022/09/01 09:17:35;;;;;;;;;;;31.10;81.40;;;;;;5013610;28;19936;-74
2022/09/01 09:20:02;;;;;;;;;;;31.80;80.80;;;;;;5020756;28;19921;-74
2022/09/01 09:22:28;;;;;;;;;;;31.70;80.00;;;;;;5008520;28;19991;-74
2022/09/01 09:25:23;;;;;;;;;;;31.50;82.20;;;;;;5030976;28;20476;-73
2022/09/01 09:27:49;;;;;;;;;;;31.90;81.30;;;;;;5010690;28;19964;-74
2022/09/01 09:30:19;;;;;;;;;;;32.10;80.90;;;;;;5031833;28;19957;-74
2022/09/01 09:33:04;;;;;;;;;;;32.00;79.40;;;;;;5011201;28;19921;-75
2022/09/01 09:35:32;;;;;;;;;;;32.20;78.20;;;;;;5005086;28;20373;-74
2022/09/01 09:38:31;;;;;;;;;;;32.50;79.00;;;;;;5008258;28;19972;-76
2022/09/01 09:41:00;;;;;;;;;;;32.60;77.30;;;;;;5018849;28;20401;-77
2022/09/01 09:43:28;;;;;;;;;;;32.50;76.50;;;;;;5017636;28;20043;-73
2022/09/01 09:46:12;;;;;;;;;;;32.50;77.00;;;;;;5028346;28;19921;-72
2022/09/01 09:48:41;;;;;;;;;;;32.80;76.60;;;;;;5027405;28;19948;-71
2022/09/01 09:51:18;;;;;;;;;;;32.50;75.80;;;;;;5030525;28;19925;-73
2022/09/01 09:53:44;;;;;;;;;;;32.30;75.30;;;;;;5044416;28;20019;-77
2022/09/01 09:56:23;;;;;;;;;;;32.30;74.60;;;;;;5042737;28;19999;-69
2022/09/01 09:58:49;;;;;;;;;;;32.40;75.10;;;;;;5027403;28;19975;-70
2022/09/01 10:01:21;;;;;;;;;;;32.10;78.10;;;;;;5026570;28;20336;-69
2022/09/01 10:03:50;;;;;;;;;;;32.50;76.00;;;;;;5024858;28;19955;-72
2022/09/01 10:06:32;;;;;;;;;;;32.80;74.90;;;;;;5052643;28;20275;-72
2022/09/01 10:08:59;;;;;;;;;;;32.90;74.30;;;;;;5038063;28;19924;-69
2022/09/01 10:11:45;;;;;;;;;;;33.20;72.90;;;;;;5054822;28;19929;-71
2022/09/01 10:14:22;;;;;;;;;;;32.50;73.80;;;;;;5050908;28;19921;-71
2022/09/01 10:16:51;;;;;;;;;;;32.90;73.70;;;;;;5053890;28;20402;-71
2022/09/01 10:19:18;;;;;;;;;;;33.10;72.80;;;;;;5035023;28;19921;-71
2022/09/01 10:21:45;;;;;;;;;;;33.00;71.20;;;;;;5027027;28;19971;-70
2022/09/01 10:24:18;;;;;;;;;;;32.90;70.80;;;;;;5030952;28;19943;-71
2022/09/01 10:26:45;;;;;;;;;;;32.40;74.20;;;;;;5048338;28;19924;-70
2022/09/01 10:29:17;;;;;;;;;;;31.90;74.10;;;;;;5026288;28;19920;-70
2022/09/01 10:31:43;;;;;;;;;;;31.80;73.90;;;;;;5025638;28;19948;-71
2022/09/01 10:34:12;;;;;;;;;;;31.90;75.40;;;;;;5026407;28;19925;-71
2022/09/01 10:36:43;;;;;;;;;;;32.20;76.80;;;;;;5030256;28;19920;-70
2022/09/01 10:39:16;;;;;;;;;;;32.40;72.60;;;;;;5036267;28;20391;-70
2022/09/01 10:41:47;;;;;;;;;;;31.10;73.10;;;;;;5054608;28;20349;-70
2022/09/01 10:44:18;;;;;;;;;;;30.80;75.30;;;;;;5048904;28;19979;-70
2022/09/01 10:46:44;;;;;;;;;;;31.00;72.60;;;;;;5024316;28;19943;-72
2022/09/01 10:49:18;;;;;;;;;;;31.10;74.40;;;;;;5023370;28;19925;-71
2022/09/01 10:51:44;;;;;;;;;;;30.10;75.80;;;;;;5023009;28;19921;-71
2022/09/01 10:54:30;;;;;;;;;;;29.10;75.20;;;;;;5033755;28;19924;-70
2022/09/01 10:56:56;;;;;;;;;;;28.70;74.80;;;;;;5032013;28;19970;-71
2022/09/01 10:59:21;;;;;;;;;;;29.40;76.60;;;;;;5053177;28;19920;-70
2022/09/01 11:01:47;;;;;;;;;;;29.50;76.00;;;;;;5053815;28;20380;-71
2022/09/01 11:04:14;;;;;;;;;;;29.70;75.00;;;;;;5052566;28;20380;-70
2022/09/01 11:07:00;;;;;;;;;;;30.00;73.00;;;;;;5026257;28;19937;-70
2022/09/01 11:09:29;;;;;;;;;;;30.30;74.00;;;;;;5049865;28;20364;-70
2022/09/01 11:12:01;;;;;;;;;;;29.60;70.90;;;;;;5034479;28;19975;-70
2022/09/01 11:14:28;;;;;;;;;;;28.60;72.80;;;;;;5035520;28;19920;-71
2022/09/01 11:17:10;;;;;;;;;;;28.00;74.30;;;;;;5052640;28;19948;-70
2022/09/01 11:19:42;;;;;;;;;;;28.70;74.50;;;;;;5050412;28;19921;-69
2022/09/01 11:22:10;;;;;;;;;;;29.00;72.10;;;;;;5043021;28;19967;-69
2022/09/01 11:24:41;;;;;;;;;;;29.60;72.10;;;;;;5049031;28;19943;-69
2022/09/01 11:27:08;;;;;;;;;;;30.30;71.30;;;;;;5029523;28;19950;-70
2022/09/01 11:30:09;;;;;;;;;;;30.10;70.40;;;;;;5028209;28;20402;-70
2022/09/01 11:32:37;;;;;;;;;;;29.50;68.70;;;;;;4945983;28;19929;-70
2022/09/01 11:35:05;;;;;;;;;;;28.60;71.90;;;;;;5010488;28;19980;-70
2022/09/01 11:37:32;;;;;;;;;;;28.30;76.80;;;;;;5025079;28;19927;-69
2022/09/01 11:39:58;;;;;;;;;;;27.80;78.90;;;;;;5024013;28;19921;-70
2022/09/01 11:42:33;;;;;;;;;;;27.30;80.10;;;;;;5024031;28;19978;-70
2022/09/01 11:45:02;;;;;;;;;;;26.90;75.40;;;;;;5029848;28;19928;-69
2022/09/01 11:47:32;;;;;;;;;;;26.50;75.20;;;;;;5034057;28;19924;-69
2022/09/01 11:50:01;;;;;;;;;;;26.20;73.80;;;;;;5048945;28;20353;-69
2022/09/01 11:52:31;;;;;;;;;;;26.10;73.50;;;;;;5027452;28;19925;-70
2022/09/01 11:54:57;;;;;;;;;;;25.90;72.10;;;;;;5051878;28;19924;-69
2022/09/01 11:57:26;;;;;;;;;;;25.60;72.70;;;;;;5034437;28;19927;-70
2022/09/01 11:59:53;;;;;;;;;;;25.80;77.70;;;;;;5034135;28;19920;-71
2022/09/01 12:02:38;;;;;;;;;;;26.80;80.30;;;;;;5033908;28;20392;-72
2022/09/01 12:05:23;;;;;;;;;;;27.80;70.60;;;;;;5029513;28;19920;-71
2022/09/01 12:07:48;;;;;;;;;;;28.10;71.00;;;;;;5023066;28;19924;-70
2022/09/01 12:10:19;;;;;;;;;;;27.80;72.00;;;;;;5044633;28;19931;-68
2022/09/01 12:12:45;;;;;;;;;;;27.50;74.60;;;;;;5042480;28;20326;-69
2022/09/01 12:15:21;;;;;;;;;;;27.00;77.20;;;;;;5025425;28;20051;-69
2022/09/01 12:17:47;;;;;;;;;;;27.60;78.40;;;;;;5030038;28;19923;-73
2022/09/01 12:20:22;;;;;;;;;;;28.30;79.20;;;;;;5023991;28;19921;-66
2022/09/01 12:22:48;;;;;;;;;;;29.00;76.20;;;;;;5030805;28;19916;-66
2022/09/01 12:25:27;;;;;;;;;;;29.70;75.40;;;;;;5033074;28;19931;-69
2022/09/01 12:27:53;;;;;;;;;;;29.80;74.00;;;;;;5031694;28;19959;-68
2022/09/01 12:30:19;;;;;;;;;;;29.40;72.90;;;;;;5051120;28;19963;-68
2022/09/01 12:32:45;;;;;;;;;;;29.50;71.30;;;;;;5031132;28;19921;-69
2022/09/01 12:35:18;;;;;;;;;;;29.50;68.80;;;;;;5031368;28;19921;-69
2022/09/01 12:37:44;;;;;;;;;;;29.30;67.50;;;;;;5026635;28;19920;-67
2022/09/01 12:40:30;;;;;;;;;;;29.70;69.20;;;;;;5033090;28;19925;-70
2022/09/01 12:42:55;;;;;;;;;;;30.30;68.10;;;;;;5049869;28;19921;-68
2022/09/01 12:45:41;;;;;;;;;;;30.40;68.50;;;;;;5033325;28;19929;-69
2022/09/01 12:48:22;;;;;;;;;;;30.40;69.60;;;;;;5029639;28;19924;-71
2022/09/01 12:50:51;;;;;;;;;;;29.80;71.20;;;;;;5044886;28;20042;-68
2022/09/01 12:53:18;;;;;;;;;;;28.90;69.70;;;;;;5026249;28;19932;-69
2022/09/01 12:55:54;;;;;;;;;;;28.50;69.70;;;;;;5048867;28;20415;-73
2022/09/01 12:58:22;;;;;;;;;;;28.30;71.00;;;;;;5033612;28;19924;-76
2022/09/01 13:00:55;;;;;;;;;;;28.50;69.60;;;;;;5051476;28;20376;-71
2022/09/01 13:03:22;;;;;;;;;;;28.50;69.40;;;;;;5051423;28;19921;-75
2022/09/01 13:05:51;;;;;;;;;;;28.50;70.70;;;;;;5048145;28;19947;-74
2022/09/01 13:08:25;;;;;;;;;;;28.40;67.80;;;;;;5041910;28;19925;-74
2022/09/01 13:10:52;;;;;;;;;;;28.40;70.20;;;;;;5026090;28;19943;-76
2022/09/01 13:13:18;;;;;;;;;;;28.30;70.80;;;;;;5035390;28;19920;-70
2022/09/01 13:15:46;;;;;;;;;;;27.90;71.10;;;;;;5037563;28;19920;-71
2022/09/01 13:18:16;;;;;;;;;;;27.30;73.00;;;;;;5037042;28;19920;-70
2022/09/01 13:20:44;;;;;;;;;;;27.00;74.80;;;;;;5054700;28;19923;-71
2022/09/01 13:23:11;;;;;;;;;;;26.60;76.10;;;;;;5036348;28;20022;-72
2022/09/01 13:25:38;;;;;;;;;;;26.30;76.00;;;;;;5036824;28;19928;-68
2022/09/01 13:28:06;;;;;;;;;;;26.20;75.40;;;;;;5044159;28;19967;-74
2022/09/01 13:30:32;;;;;;;;;;;26.00;74.00;;;;;;5033156;28;19921;-72
2022/09/01 13:32:58;;;;;;;;;;;25.80;73.80;;;;;;5036390;28;19927;-72
2022/09/01 13:35:24;;;;;;;;;;;25.90;74.70;;;;;;5037438;28;19920;-73
2022/09/01 13:37:50;;;;;;;;;;;25.90;73.70;;;;;;5054280;28;20364;-69
2022/09/01 13:40:16;;;;;;;;;;;25.70;74.60;;;;;;5036944;28;19928;-74
2022/09/01 13:42:42;;;;;;;;;;;25.40;74.90;;;;;;5028242;28;19921;-72
2022/09/01 13:45:11;;;;;;;;;;;25.60;76.70;;;;;;5027037;28;20024;-70
2022/09/01 13:47:40;;;;;;;;;;;25.90;77.70;;;;;;5026366;28;20261;-73
2022/09/01 13:50:06;;;;;;;;;;;26.10;79.20;;;;;;5045097;28;19921;-73
2022/09/01 13:52:32;;;;;;;;;;;26.00;79.00;;;;;;5025607;28;19917;-72
2022/09/01 13:54:57;;;;;;;;;;;25.70;80.50;;;;;;5027989;28;19973;-72
2022/09/01 13:57:23;;;;;;;;;;;25.80;81.60;;;;;;5026046;28;19920;-68
2022/09/01 13:59:52;;;;;;;;;;;25.80;81.80;;;;;;5026508;28;19935;-72